Houston, Texas
Traffic Map
Current Weather Conditions
Houston, Texas
Broken Clouds Light Rain
Broken Clouds
73°
Feels Like: 73°
Wind Chill: 73° Ceiling: 9000
Heat Index: 73° Visibility: 10mi
Dew Point: 71° Wind: 3mph
Humidity: 93% Direction: 160° (SSE)
Pressure: 30.05in Gusts: 0mph
Raw Report DataKIAH 021153Z 16003KT 10SM -RA SCT010 SCT043 BKN090 BKN250 23/22 A3005 RMK AO2 RAE1057B38 SLP174 P0000 60000 T02280217 10239 20228 51008
Traffic Incident Summary
Active as of:
Severity:
Category:
InformationThere was an issue retrieving the traffic information for this location. Please try a different location or try again shortly.
Advertisements
Track Severe Weather on mobile